Portada
METAR-TAF:

METAR-TAF

Aeroports :

Dübendorf, Suïssa

latitud: 47-23-55N, longitud: 8-38-53E, altitud: 448 m

Observació

L'informe es va fer fa 27 minuts, a les 23:50 UTC
Vent 7 kt del Oest, variant entre Oest/Sud-Oest i Nord-Oest
Temperatura 3°C
Humitat 75%
Pressió 1013 hPa
Visibilitat 10 km o més
Cel ennuvolat a una alçada de 1900 ft
Cel ennuvolat a una alçada de 2800 ft
Cel cobert a una alçada de 4800 ft
xàfecs de pluja

METAR: LSMD 272350Z AUTO 28007KT 240V320 9999NDV -SHRA BKN019 BKN028 OVC048 03/M01 Q1013 RMK

Hora: 01:17 (00:17 UTC)


TAF: manca

Observacions i pronòstics meteorològics de més de 4000 aeroports (METAR i TAF).

Les estacions disponibles són els punts grocs i vermells al mapa.

Posi el ratolí al punt desitjat per veure el nom de l'estació.

Feu clic per veure les observacions i els pronòstics meteorològics.

Per canviar el mapa: feu clic els botons verds amb una creu de color negre per apropar; al botó verd amb un guió per allunyar la imatge; o en les fletxes verdes per a mapes adjacents.


METAR-TAF: